createdAt,value
2019-01-04T00:01:40.127Z,103006.34
2019-01-04T00:04:08.645Z,103007.22
2019-01-04T00:06:37.068Z,103012.34
2019-01-04T00:09:06.625Z,103015.28
2019-01-04T00:11:36.598Z,103018.99
2019-01-04T00:14:10.007Z,103001.28
2019-01-04T00:16:38.457Z,102997.45
2019-01-04T00:19:07.576Z,102990.30
2019-01-04T00:21:36.070Z,102988.82
2019-01-04T00:24:05.072Z,102989.31
2019-01-04T00:26:33.533Z,102988.87
2019-01-04T00:29:01.985Z,102991.43
2019-01-04T00:31:30.417Z,102985.34
2019-01-04T00:33:58.881Z,102995.81
2019-01-04T00:36:27.316Z,102991.91
2019-01-04T00:38:55.806Z,102996.91
2019-01-04T00:41:24.232Z,102993.20
2019-01-04T00:43:52.718Z,103004.06
2019-01-04T00:46:21.157Z,102996.37
2019-01-04T00:48:49.630Z,102992.92
2019-01-04T00:51:18.083Z,102985.70
2019-01-04T00:53:46.520Z,102989.83
2019-01-04T00:56:18.026Z,102979.91
2019-01-04T00:59:09.254Z,102969.08
2019-01-04T01:02:10.910Z,102975.09
2019-01-04T01:04:57.066Z,102976.75
2019-01-04T01:07:34.053Z,102985.31
2019-01-04T01:10:23.396Z,102981.44
2019-01-04T01:13:06.335Z,102985.83
2019-01-04T01:15:55.934Z,102984.27
2019-01-04T01:18:48.298Z,102981.15
2019-01-04T01:21:35.958Z,102989.38
2019-01-04T01:24:36.180Z,102983.21
2019-01-04T01:27:41.089Z,102978.95
2019-01-04T01:30:30.617Z,102975.09
2019-01-04T01:33:11.110Z,102977.83
2019-01-04T01:35:56.954Z,102985.57
2019-01-04T01:38:48.853Z,102975.59
2019-01-04T01:41:46.082Z,102979.31
2019-01-04T01:44:34.358Z,102980.22
2019-01-04T01:47:08.632Z,102979.87
2019-01-04T01:49:43.045Z,102968.91
2019-01-04T01:52:23.564Z,102962.50
2019-01-04T01:54:51.992Z,102962.88
2019-01-04T01:57:20.443Z,102967.23
2019-01-04T01:59:48.875Z,102965.06
2019-01-04T02:02:17.323Z,102959.73
2019-01-04T02:04:45.756Z,102962.67
2019-01-04T02:07:14.199Z,102952.37
2019-01-04T02:09:42.647Z,102953.36
2019-01-04T02:12:11.109Z,102950.02
2019-01-04T02:14:39.544Z,102954.52
2019-01-04T02:17:08.009Z,102954.06
2019-01-04T02:19:36.454Z,102953.35
2019-01-04T02:22:04.897Z,102937.30
2019-01-04T02:24:33.328Z,102938.54
2019-01-04T02:27:01.784Z,102933.14
2019-01-04T02:29:30.219Z,102929.91
2019-01-04T02:31:58.683Z,102925.59
2019-01-04T02:34:27.143Z,102929.24
2019-01-04T02:36:55.670Z,102924.88
2019-01-04T02:39:24.104Z,102925.20
2019-01-04T02:41:52.565Z,102924.02
2019-01-04T02:44:20.995Z,102916.89
2019-01-04T02:46:49.446Z,102911.32
2019-01-04T02:49:17.871Z,102908.27
2019-01-04T02:51:46.413Z,102902.02
2019-01-04T02:54:14.861Z,102899.87
2019-01-04T02:56:43.305Z,102894.86
2019-01-04T02:59:12.418Z,102893.16
2019-01-04T03:01:40.865Z,102890.34
2019-01-04T03:04:09.317Z,102894.63
2019-01-04T03:06:37.753Z,102892.91
2019-01-04T03:09:06.965Z,102898.48
2019-01-04T03:11:35.379Z,102896.13
2019-01-04T03:14:03.855Z,102884.30
2019-01-04T03:16:32.275Z,102877.64
2019-01-04T03:19:00.731Z,102882.34
2019-01-04T03:21:29.179Z,102866.47
2019-01-04T03:23:57.625Z,102867.75
2019-01-04T03:26:26.073Z,102860.20
2019-01-04T03:28:54.529Z,102863.72
2019-01-04T03:31:22.961Z,102852.64
2019-01-04T03:33:51.465Z,102854.38
2019-01-04T03:36:19.905Z,102847.10
2019-01-04T03:38:48.365Z,102843.56
2019-01-04T03:41:16.801Z,102842.88
2019-01-04T03:43:45.258Z,102838.34
2019-01-04T03:46:13.705Z,102841.48
2019-01-04T03:48:42.155Z,102839.11
2019-01-04T03:51:10.597Z,102826.96
2019-01-04T03:53:39.073Z,102824.06
2019-01-04T03:56:07.519Z,102811.70
2019-01-04T03:58:35.981Z,102805.58
2019-01-04T04:01:04.425Z,102800.39
2019-01-04T04:03:33.646Z,102791.58
2019-01-04T04:06:02.094Z,102790.51
2019-01-04T04:08:30.565Z,102789.61
2019-01-04T04:10:59.016Z,102784.98
2019-01-04T04:13:27.477Z,102786.11
2019-01-04T04:15:55.916Z,102786.11
2019-01-04T04:18:24.369Z,102784.22
2019-01-04T04:20:52.809Z,102782.52
2019-01-04T04:23:21.288Z,102775.05
2019-01-04T04:25:49.763Z,102771.21
2019-01-04T04:28:18.226Z,102759.92
2019-01-04T04:30:46.664Z,102762.03
2019-01-04T04:33:15.111Z,102761.52
2019-01-04T04:35:43.559Z,102761.52
2019-01-04T04:38:11.998Z,102768.33
2019-01-04T04:40:40.455Z,102771.90
2019-01-04T04:43:08.893Z,102770.79
2019-01-04T04:45:37.371Z,102763.36
2019-01-04T04:48:05.826Z,102752.93
2019-01-04T04:50:34.272Z,102746.94
2019-01-04T04:53:02.719Z,102744.01
2019-01-04T04:55:31.185Z,102746.24
2019-01-04T04:57:59.639Z,102748.53
2019-01-04T05:00:28.091Z,102740.86
2019-01-04T05:02:56.522Z,102735.01
2019-01-04T05:05:24.973Z,102741.20
2019-01-04T05:07:53.426Z,102740.27
2019-01-04T05:10:21.886Z,102741.55
2019-01-04T05:12:50.324Z,102741.76
2019-01-04T05:15:18.776Z,102742.09
2019-01-04T05:17:47.220Z,102738.96
2019-01-04T05:20:16.607Z,102731.80
2019-01-04T05:22:45.047Z,102727.79
2019-01-04T05:25:13.515Z,102719.90
2019-01-04T05:27:41.948Z,102725.89
2019-01-04T05:30:10.404Z,102732.91
2019-01-04T05:32:38.854Z,102736.23
2019-01-04T05:35:07.334Z,102741.36
2019-01-04T05:37:35.756Z,102741.73
2019-01-04T05:40:06.142Z,102736.88
2019-01-04T05:42:34.579Z,102732.70
2019-01-04T05:45:03.029Z,102720.23
2019-01-04T05:47:31.491Z,102706.14
2019-01-04T05:49:59.923Z,102696.91
2019-01-04T05:52:28.420Z,102699.64
2019-01-04T05:54:56.819Z,102692.38
2019-01-04T05:57:25.273Z,102688.75
2019-01-04T05:59:53.708Z,102687.19
2019-01-04T06:02:22.170Z,102680.22
2019-01-04T06:04:50.631Z,102675.10
2019-01-04T06:07:19.096Z,102677.06
2019-01-04T06:09:47.542Z,102682.14
2019-01-04T06:12:16.037Z,102683.34
2019-01-04T06:14:44.465Z,102683.94
2019-01-04T06:17:12.909Z,102677.75
2019-01-04T06:19:41.344Z,102676.13
2019-01-04T06:22:09.820Z,102670.28
2019-01-04T06:24:38.259Z,102659.91
2019-01-04T06:27:06.763Z,102660.04
2019-01-04T06:29:35.199Z,102663.23
2019-01-04T06:32:03.658Z,102664.86
2019-01-04T06:34:32.109Z,102650.09
2019-01-04T06:37:00.601Z,102663.58
2019-01-04T06:39:29.034Z,102666.53
2019-01-04T06:41:57.517Z,102663.75
2019-01-04T06:44:25.960Z,102661.70
2019-01-04T06:47:08.881Z,102663.67
2019-01-04T06:49:37.317Z,102652.05
2019-01-04T06:52:05.777Z,102646.13
2019-01-04T06:55:10.681Z,102639.85
2019-01-04T06:57:39.157Z,102641.69
2019-01-04T07:00:09.037Z,102644.41
2019-01-04T07:02:37.584Z,102641.09
2019-01-04T07:05:06.865Z,102641.03
2019-01-04T07:07:35.318Z,102639.08
2019-01-04T07:10:04.697Z,102637.44
2019-01-04T07:12:33.175Z,102642.61
2019-01-04T07:15:01.605Z,102638.72
2019-01-04T07:17:31.625Z,102636.89
2019-01-04T07:20:00.152Z,102627.24
2019-01-04T07:22:28.689Z,102631.01
2019-01-04T07:24:57.123Z,102615.20
2019-01-04T07:27:25.605Z,102613.62
2019-01-04T07:29:54.045Z,102613.37
2019-01-04T07:32:22.488Z,102604.55
2019-01-04T07:34:50.939Z,102608.91
2019-01-04T07:37:19.379Z,102607.41
2019-01-04T07:39:47.843Z,102608.17
2019-01-04T07:42:16.281Z,102610.48
2019-01-04T07:44:44.754Z,102604.90
2019-01-04T07:47:13.196Z,102600.71
2019-01-04T07:49:41.688Z,102606.42
2019-01-04T07:52:10.147Z,102600.55
2019-01-04T07:54:38.598Z,102596.19
2019-01-04T07:57:07.038Z,102593.27
2019-01-04T07:59:35.516Z,102593.79
2019-01-04T08:02:23.575Z,102587.76
2019-01-04T08:04:52.062Z,102581.00
2019-01-04T08:07:20.496Z,102583.09
2019-01-04T08:09:48.956Z,102575.55
2019-01-04T08:12:17.403Z,102574.49
2019-01-04T08:14:45.883Z,102568.72
2019-01-04T08:17:14.329Z,102574.90
2019-01-04T08:19:42.800Z,102564.20
2019-01-04T08:22:11.256Z,102549.31
2019-01-04T08:24:39.714Z,102558.84
2019-01-04T08:27:08.159Z,102562.12
2019-01-04T08:29:36.726Z,102553.38
2019-01-04T08:32:05.162Z,102545.91
2019-01-04T08:34:33.630Z,102549.36
2019-01-04T08:37:02.072Z,102542.91
2019-01-04T08:39:30.552Z,102537.69
2019-01-04T08:41:58.997Z,102544.93
2019-01-04T08:44:27.456Z,102547.33
2019-01-04T08:46:55.906Z,102545.28
2019-01-04T08:49:24.395Z,102538.20
2019-01-04T08:51:52.841Z,102536.69
2019-01-04T08:54:21.324Z,102535.41
2019-01-04T08:56:49.832Z,102528.40
2019-01-04T08:59:18.290Z,102536.25
2019-01-04T09:01:46.758Z,102524.39
2019-01-04T09:04:15.218Z,102528.56
2019-01-04T09:06:43.674Z,102520.09
2019-01-04T09:09:12.125Z,102507.73
2019-01-04T09:11:40.605Z,102501.54
2019-01-04T09:14:09.089Z,102501.97
2019-01-04T09:16:37.558Z,102491.78
2019-01-04T09:19:06.085Z,102486.92
2019-01-04T09:21:34.534Z,102480.84
2019-01-04T09:24:02.976Z,102473.13
2019-01-04T09:26:31.445Z,102478.27
2019-01-04T09:28:59.895Z,102468.28
2019-01-04T09:31:28.360Z,102474.26
2019-01-04T09:33:57.138Z,102476.75
2019-01-04T09:36:25.639Z,102469.36
2019-01-04T09:38:54.093Z,102464.00
2019-01-04T09:41:28.991Z,102457.31
2019-01-04T09:43:57.465Z,102441.36
2019-01-04T09:46:25.910Z,102445.31
2019-01-04T09:48:54.391Z,102442.64
2019-01-04T09:51:22.851Z,102437.73
2019-01-04T09:53:51.308Z,102428.58
2019-01-04T09:56:19.834Z,102413.14
2019-01-04T09:58:48.231Z,102411.58
2019-01-04T10:01:16.687Z,102406.73
2019-01-04T10:03:45.151Z,102402.92
2019-01-04T10:06:13.619Z,102395.39
2019-01-04T10:08:44.990Z,102398.61
2019-01-04T10:11:12.293Z,102389.91
2019-01-04T10:13:40.751Z,102393.09
2019-01-04T10:16:09.245Z,102386.80
2019-01-04T10:18:37.729Z,102387.11
2019-01-04T10:21:06.187Z,102381.71
2019-01-04T10:23:34.691Z,102376.66
2019-01-04T10:26:03.108Z,102376.53
2019-01-04T10:28:31.569Z,102357.92
2019-01-04T10:31:00.019Z,102362.85
2019-01-04T10:33:28.516Z,102334.90
2019-01-04T10:35:56.958Z,102344.92
2019-01-04T10:38:25.418Z,102325.41
2019-01-04T10:40:53.875Z,102322.55
2019-01-04T10:43:22.333Z,102306.49
2019-01-04T10:45:50.781Z,102309.45
2019-01-04T10:48:19.259Z,102292.33
2019-01-04T10:50:47.713Z,102282.78
2019-01-04T10:53:16.177Z,102278.92
2019-01-04T10:55:44.663Z,102262.49
2019-01-04T10:58:13.135Z,102256.67
2019-01-04T11:00:41.587Z,102241.81
2019-01-04T11:03:10.066Z,102250.42
2019-01-04T11:05:38.495Z,102245.66
2019-01-04T11:08:07.028Z,102238.73
2019-01-04T11:10:35.419Z,102225.95
2019-01-04T11:13:03.876Z,102216.58
2019-01-04T11:15:32.334Z,102212.14
2019-01-04T11:18:00.845Z,102215.45
2019-01-04T11:20:43.441Z,102210.81
2019-01-04T11:23:35.829Z,102197.77
2019-01-04T11:26:13.397Z,102192.16
2019-01-04T11:28:56.914Z,102185.98
2019-01-04T11:31:37.425Z,102188.06
2019-01-04T11:34:18.124Z,102178.52
2019-01-04T11:37:00.932Z,102173.77
2019-01-04T11:39:35.510Z,102174.67
2019-01-04T11:42:15.919Z,102153.50
2019-01-04T11:45:02.669Z,102134.64
2019-01-04T11:47:54.821Z,102129.76
2019-01-04T11:50:50.489Z,102120.42
2019-01-04T11:53:19.033Z,102106.41
2019-01-04T11:55:47.501Z,102105.16
2019-01-04T11:58:15.935Z,102093.22
2019-01-04T12:00:44.406Z,102096.42
2019-01-04T12:03:12.848Z,102096.92
2019-01-04T12:05:41.325Z,102100.23
2019-01-04T12:08:09.790Z,102085.52
2019-01-04T12:10:38.246Z,102074.31
2019-01-04T12:13:06.684Z,102073.02
2019-01-04T12:15:35.162Z,102079.69
2019-01-04T12:18:03.623Z,102073.02
2019-01-04T12:20:32.070Z,102081.76
2019-01-04T12:23:00.522Z,102089.22
2019-01-04T12:25:28.984Z,102099.62
2019-01-04T12:27:57.423Z,102111.05
2019-01-04T12:30:25.890Z,102117.71
2019-01-04T12:32:54.328Z,102117.71
2019-01-04T12:35:22.790Z,102110.80
2019-01-04T12:37:51.248Z,102105.41
2019-01-04T12:40:19.732Z,102104.27
2019-01-04T12:42:48.169Z,102105.16
2019-01-04T12:45:16.713Z,102102.95
2019-01-04T12:47:45.157Z,102092.58
2019-01-04T12:50:13.636Z,102089.27
2019-01-04T12:52:42.067Z,102098.35
2019-01-04T12:55:10.569Z,102109.66
2019-01-04T12:57:38.997Z,102105.91
2019-01-04T13:00:10.954Z,102108.73
2019-01-04T13:02:39.435Z,102093.76
2019-01-04T13:05:07.832Z,102102.60
2019-01-04T13:07:36.263Z,102107.20
2019-01-04T13:10:05.447Z,102100.81
2019-01-04T13:12:33.905Z,102096.43
2019-01-04T13:15:02.345Z,102093.22
2019-01-04T13:17:30.833Z,102094.11
2019-01-04T13:19:59.282Z,102093.08
2019-01-04T13:22:27.734Z,102091.16
2019-01-04T13:24:56.179Z,102078.59
2019-01-04T13:27:24.634Z,102083.48
2019-01-04T13:29:53.075Z,102078.73
2019-01-04T13:32:21.532Z,102070.75
2019-01-04T13:34:49.968Z,102070.25
2019-01-04T13:37:18.449Z,102077.31
2019-01-04T13:39:46.891Z,102067.69
2019-01-04T13:42:15.374Z,102054.84
2019-01-04T13:44:43.817Z,102059.08
2019-01-04T13:47:12.270Z,102049.59
2019-01-04T13:49:40.720Z,102049.95
2019-01-04T13:52:09.184Z,102040.22
2019-01-04T13:54:37.610Z,102039.19
2019-01-04T13:57:06.074Z,102043.14
2019-01-04T13:59:34.554Z,102042.92
2019-01-04T14:02:03.018Z,102042.38
2019-01-04T14:04:31.457Z,102032.37
2019-01-04T14:06:59.922Z,102033.78
2019-01-04T14:09:29.279Z,102019.16
2019-01-04T14:11:57.747Z,102019.41
2019-01-04T14:14:26.183Z,102007.20
2019-01-04T14:16:54.620Z,102009.39
2019-01-04T14:19:23.069Z,102008.75
2019-01-04T14:21:51.505Z,102002.47
2019-01-04T14:24:19.939Z,102009.64
2019-01-04T14:26:48.381Z,102012.34
2019-01-04T14:29:16.840Z,102021.44
2019-01-04T14:31:45.287Z,102027.76
2019-01-04T14:34:13.745Z,102021.84
2019-01-04T14:36:42.199Z,102015.03
2019-01-04T14:39:10.654Z,102006.55
2019-01-04T14:41:39.101Z,102020.17
2019-01-04T14:44:07.584Z,102013.77
2019-01-04T14:46:36.488Z,102013.11
2019-01-04T14:49:04.943Z,102001.67
2019-01-04T14:51:33.375Z,101993.72
2019-01-04T14:54:01.844Z,101993.47
2019-01-04T14:56:30.268Z,101987.17
2019-01-04T14:58:58.770Z,101975.97
2019-01-04T15:01:27.171Z,101972.52
2019-01-04T15:03:55.623Z,101965.84
2019-01-04T15:06:24.079Z,101972.91
2019-01-04T15:08:52.554Z,101974.96
2019-01-04T15:11:20.961Z,101965.71
2019-01-04T15:13:49.435Z,101972.89
2019-01-04T15:16:17.865Z,101977.77
2019-01-04T15:18:46.325Z,101984.70
2019-01-04T15:21:14.765Z,101982.66
2019-01-04T15:23:43.233Z,101979.95
2019-01-04T15:26:11.664Z,101975.59
2019-01-04T15:28:40.092Z,101969.94
2019-01-04T15:31:08.547Z,101966.45
2019-01-04T15:33:36.991Z,101955.02
2019-01-04T15:36:05.447Z,101955.66
2019-01-04T15:38:36.398Z,101956.43
2019-01-04T15:41:04.131Z,101963.09
2019-01-04T15:43:32.582Z,101964.36
2019-01-04T15:46:01.077Z,101963.07
2019-01-04T15:48:29.532Z,101961.92
2019-01-04T15:50:57.986Z,101964.63
2019-01-04T15:53:26.480Z,101966.55
2019-01-04T15:55:54.968Z,101964.63
2019-01-04T15:58:23.406Z,101963.81
2019-01-04T16:00:51.876Z,101960.38
2019-01-04T16:03:20.326Z,101964.84
2019-01-04T16:05:48.798Z,101962.91
2019-01-04T16:08:17.235Z,101965.10
2019-01-04T16:10:45.700Z,101958.95
2019-01-04T16:13:14.164Z,101955.09
2019-01-04T16:15:42.636Z,101956.38
2019-01-04T16:18:11.102Z,101956.12
2019-01-04T16:20:39.865Z,101945.58
2019-01-04T16:23:08.316Z,101954.41
2019-01-04T16:25:36.752Z,101956.46
2019-01-04T16:28:05.242Z,101956.23
2019-01-04T16:30:33.709Z,101952.73
2019-01-04T16:33:02.208Z,101949.64
2019-01-04T16:35:30.732Z,101950.17
2019-01-04T16:37:59.222Z,101943.98
2019-01-04T16:40:27.672Z,101945.89
2019-01-04T16:42:56.134Z,101944.89
2019-01-04T16:45:24.591Z,101941.90
2019-01-04T16:47:55.582Z,101947.04
2019-01-04T16:50:24.121Z,101943.71
2019-01-04T16:52:52.591Z,101930.70
2019-01-04T16:55:21.043Z,101932.24
2019-01-04T16:57:49.503Z,101927.20
2019-01-04T17:00:17.972Z,101931.33
2019-01-04T17:02:46.418Z,101939.14
2019-01-04T17:05:14.890Z,101943.13
2019-01-04T17:07:43.331Z,101944.91
2019-01-04T17:10:11.800Z,101936.93
2019-01-04T17:12:40.282Z,101945.27
2019-01-04T17:15:08.786Z,101938.48
2019-01-04T17:17:37.228Z,101945.70
2019-01-04T17:20:06.155Z,101940.66
2019-01-04T17:22:34.604Z,101935.15
2019-01-04T17:25:03.085Z,101943.13
2019-01-04T17:27:31.895Z,101945.53
2019-01-04T17:30:00.372Z,101941.08
2019-01-04T17:32:28.838Z,101948.77
2019-01-04T17:34:57.321Z,101950.22
2019-01-04T17:37:25.802Z,101944.80
2019-01-04T17:39:54.247Z,101954.20
2019-01-04T17:42:22.719Z,101953.28
2019-01-04T17:44:51.182Z,101957.77
2019-01-04T17:47:19.644Z,101959.31
2019-01-04T17:49:48.109Z,101966.77
2019-01-04T17:52:16.572Z,101966.25
2019-01-04T17:54:45.038Z,101952.63
2019-01-04T17:57:13.510Z,101948.23
2019-01-04T17:59:41.983Z,101959.06
2019-01-04T18:02:10.520Z,101961.99
2019-01-04T18:04:38.963Z,101954.17
2019-01-04T18:07:07.440Z,101957.73
2019-01-04T18:09:35.953Z,101955.20
2019-01-04T18:12:04.421Z,101957.24
2019-01-04T18:14:32.870Z,101952.98
2019-01-04T18:17:01.339Z,101963.41
2019-01-04T18:19:29.772Z,101968.59
2019-01-04T18:21:58.230Z,101960.08
2019-01-04T18:24:26.708Z,101960.05
2019-01-04T18:26:55.203Z,101961.59
2019-01-04T18:29:23.670Z,101957.91
2019-01-04T18:31:52.133Z,101956.72
2019-01-04T18:34:20.720Z,101954.14
2019-01-04T18:36:49.260Z,101954.67
2019-01-04T18:39:17.732Z,101945.64
2019-01-04T18:41:46.193Z,101948.34
2019-01-04T18:44:14.678Z,101934.33
2019-01-04T18:46:43.125Z,101939.47
2019-01-04T18:49:11.629Z,101937.63
2019-01-04T18:51:40.115Z,101937.92
2019-01-04T18:54:08.584Z,101938.55
2019-01-04T18:56:37.102Z,101939.44
2019-01-04T18:59:05.561Z,101935.45
2019-01-04T19:01:34.019Z,101939.30
2019-01-04T19:04:02.501Z,101943.66
2019-01-04T19:06:31.287Z,101941.97
2019-01-04T19:08:59.831Z,101954.30
2019-01-04T19:11:28.670Z,101944.24
2019-01-04T19:13:57.147Z,101948.63
2019-01-04T19:16:25.607Z,101957.90
2019-01-04T19:18:54.100Z,101947.84
2019-01-04T19:21:22.545Z,101944.24
2019-01-04T19:23:51.108Z,101934.17
2019-01-04T19:26:19.582Z,101933.95
2019-01-04T19:28:48.076Z,101933.15
2019-01-04T19:31:16.516Z,101929.83
2019-01-04T19:33:46.092Z,101928.41
2019-01-04T19:36:14.551Z,101921.84
2019-01-04T19:38:43.036Z,101926.50
2019-01-04T19:41:11.520Z,101917.03
2019-01-04T19:43:40.007Z,101918.91
2019-01-04T19:46:08.481Z,101917.09
2019-01-04T19:48:36.986Z,101908.74
2019-01-04T19:51:05.763Z,101902.53
2019-01-04T19:53:34.251Z,101900.23
2019-01-04T19:56:02.723Z,101892.24
2019-01-04T19:58:31.171Z,101890.87
2019-01-04T20:00:59.685Z,101889.31
2019-01-04T20:03:29.680Z,101878.63
2019-01-04T20:06:11.569Z,101871.13
2019-01-04T20:09:26.675Z,101871.66
2019-01-04T20:12:39.124Z,101866.03
2019-01-04T20:15:34.094Z,101864.25
2019-01-04T20:18:05.351Z,101863.10
2019-01-04T20:20:47.826Z,101861.14
2019-01-04T20:23:26.649Z,101857.06
2019-01-04T20:26:12.967Z,101852.05
2019-01-04T20:28:52.057Z,101846.78
2019-01-04T20:31:38.470Z,101840.97
2019-01-04T20:34:08.653Z,101837.50
2019-01-04T20:36:56.205Z,101833.78
2019-01-04T20:39:38.411Z,101826.64
2019-01-04T20:42:24.842Z,101821.53
2019-01-04T20:44:54.977Z,101823.35
2019-01-04T20:47:27.551Z,101817.06
2019-01-04T20:50:00.548Z,101818.52
2019-01-04T20:52:45.518Z,101810.56
2019-01-04T20:55:24.455Z,101810.98
2019-01-04T20:57:57.407Z,101807.02
2019-01-04T21:00:43.661Z,101804.97
2019-01-04T21:03:29.448Z,101802.32
2019-01-04T21:06:08.558Z,101807.17
2019-01-04T21:08:47.529Z,101809.37
2019-01-04T21:11:17.996Z,101800.17
2019-01-04T21:14:04.187Z,101802.13
2019-01-04T21:16:49.332Z,101797.25
2019-01-04T21:19:35.507Z,101795.63
2019-01-04T21:22:17.766Z,101792.36
2019-01-04T21:24:47.878Z,101790.97
2019-01-04T21:27:34.272Z,101796.58
2019-01-04T21:30:20.691Z,101800.94
2019-01-04T21:33:07.283Z,101794.56
2019-01-04T21:35:52.484Z,101796.67
2019-01-04T21:38:31.191Z,101789.02
2019-01-04T21:41:03.775Z,101794.09
2019-01-04T21:43:33.911Z,101788.25
2019-01-04T21:46:20.238Z,101787.45
2019-01-04T21:49:06.862Z,101783.59
2019-01-04T21:51:39.957Z,101779.80
2019-01-04T21:54:26.410Z,101763.73
2019-01-04T21:57:12.496Z,101772.22
2019-01-04T21:59:58.785Z,101776.42
2019-01-04T22:02:34.861Z,101763.73
2019-01-04T22:05:13.964Z,101755.48
2019-01-04T22:07:59.295Z,101745.19
2019-01-04T22:10:35.245Z,101739.67
2019-01-04T22:13:20.451Z,101731.48
2019-01-04T22:15:50.565Z,101725.99
2019-01-04T22:18:23.369Z,101725.09
2019-01-04T22:20:56.167Z,101727.21
2019-01-04T22:23:28.912Z,101726.45
2019-01-04T22:26:15.327Z,101725.02
2019-01-04T22:28:45.456Z,101724.53
2019-01-04T22:31:24.701Z,101721.84
2019-01-04T22:34:03.811Z,101723.31
2019-01-04T22:36:33.932Z,101718.09
2019-01-04T22:39:06.479Z,101701.37
2019-01-04T22:41:48.441Z,101699.13
2019-01-04T22:44:35.986Z,101698.11
2019-01-04T22:47:08.773Z,101691.95
2019-01-04T22:49:57.112Z,101685.52
2019-01-04T22:52:39.352Z,101685.73
2019-01-04T22:55:12.056Z,101683.95
2019-01-04T22:58:00.454Z,101687.88
2019-01-04T23:00:46.039Z,101681.86
2019-01-04T23:03:34.168Z,101679.48
2019-01-04T23:06:04.301Z,101675.66
2019-01-04T23:08:49.400Z,101668.78
2019-01-04T23:11:22.229Z,101667.14
2019-01-04T23:14:08.718Z,101658.61
2019-01-04T23:16:38.821Z,101650.39
2019-01-04T23:19:08.948Z,101639.41
2019-01-04T23:21:59.472Z,101640.81
2019-01-04T23:24:29.576Z,101633.25
2019-01-04T23:27:15.894Z,101633.73
2019-01-04T23:30:00.932Z,101620.98
2019-01-04T23:32:33.672Z,101612.56
2019-01-04T23:35:19.112Z,101615.13
2019-01-04T23:37:52.386Z,101600.09
2019-01-04T23:40:22.511Z,101598.31
2019-01-04T23:43:01.356Z,101595.53
2019-01-04T23:45:32.454Z,101583.58
2019-01-04T23:48:05.521Z,101575.65
2019-01-04T23:50:35.763Z,101577.82
2019-01-04T23:53:22.247Z,101581.97
2019-01-04T23:55:55.056Z,101577.62
2019-01-04T23:58:30.672Z,101579.23
